createdAt,value
2018-12-12T00:02:26.388Z,100789.34
2018-12-12T00:04:58.793Z,100798.19
2018-12-12T00:07:34.025Z,100789.69
2018-12-12T00:10:08.224Z,100793.68
2018-12-12T00:12:39.017Z,100789.25
2018-12-12T00:15:11.185Z,100802.70
2018-12-12T00:17:43.981Z,100803.48
2018-12-12T00:20:16.990Z,100798.53
2018-12-12T00:22:49.480Z,100794.61
2018-12-12T00:25:21.669Z,100796.88
2018-12-12T00:30:48.850Z,100805.45
2018-12-12T00:33:21.153Z,100799.56
2018-12-12T00:35:53.582Z,100801.14
2018-12-12T00:38:25.411Z,100809.80
2018-12-12T00:40:57.790Z,100805.30
2018-12-12T00:43:29.860Z,100805.59
2018-12-12T00:46:04.343Z,100814.29
2018-12-12T00:48:36.084Z,100818.48
2018-12-12T00:51:12.496Z,100813.79
2018-12-12T00:53:44.280Z,100819.28
2018-12-12T00:56:16.577Z,100819.66
2018-12-12T00:58:48.713Z,100826.58
2018-12-12T01:01:20.904Z,100819.31
2018-12-12T01:03:52.801Z,100830.49
2018-12-12T01:06:25.103Z,100827.70
2018-12-12T01:08:57.151Z,100836.36
2018-12-12T01:11:34.549Z,100835.56
2018-12-12T01:14:04.735Z,100831.78
2018-12-12T01:16:34.804Z,100841.08
2018-12-12T01:19:07.319Z,100847.23
2018-12-12T01:21:39.573Z,100840.56
2018-12-12T01:24:11.795Z,100851.52
2018-12-12T01:26:41.969Z,100849.84
2018-12-12T01:29:14.107Z,100849.84
2018-12-12T01:31:45.964Z,100841.56
2018-12-12T01:34:18.032Z,100850.97
2018-12-12T01:36:50.452Z,100851.32
2018-12-12T01:39:22.293Z,100850.17
2018-12-12T01:41:54.474Z,100848.61
2018-12-12T01:44:26.843Z,100852.11
2018-12-12T01:46:58.996Z,100860.62
2018-12-12T01:49:30.992Z,100853.93
2018-12-12T01:52:03.436Z,100856.41
2018-12-12T01:54:35.554Z,100850.97
2018-12-12T01:57:05.917Z,100860.78
2018-12-12T01:59:38.428Z,100857.59
2018-12-12T02:02:10.478Z,100862.40
2018-12-12T02:04:42.721Z,100868.42
2018-12-12T02:07:14.857Z,100869.02
2018-12-12T02:09:47.010Z,100871.83
2018-12-12T02:12:19.259Z,100873.77
2018-12-12T02:14:50.823Z,100878.55
2018-12-12T02:17:22.961Z,100881.89
2018-12-12T02:19:53.261Z,100885.81
2018-12-12T02:22:25.507Z,100886.45
2018-12-12T02:24:59.556Z,100890.91
2018-12-12T02:27:31.383Z,100888.58
2018-12-12T02:30:05.484Z,100897.09
2018-12-12T02:32:37.604Z,100885.97
2018-12-12T02:35:09.873Z,100874.86
2018-12-12T02:37:42.040Z,100890.53
2018-12-12T02:40:12.324Z,100894.67
2018-12-12T02:42:46.896Z,100894.03
2018-12-12T02:45:18.618Z,100892.85
2018-12-12T02:47:52.088Z,100890.97
2018-12-12T02:50:22.196Z,100895.53
2018-12-12T02:52:54.499Z,100891.48
2018-12-12T02:55:26.920Z,100892.66
2018-12-12T02:57:57.132Z,100889.12
2018-12-12T03:00:28.814Z,100889.50
2018-12-12T03:03:04.043Z,100898.81
2018-12-12T03:05:36.376Z,100902.09
2018-12-12T03:08:08.587Z,100898.02
2018-12-12T03:10:40.899Z,100900.88
2018-12-12T03:13:13.019Z,100900.97
2018-12-12T03:15:44.985Z,100896.77
2018-12-12T03:18:19.341Z,100893.10
2018-12-12T03:20:51.538Z,100898.42
2018-12-12T03:23:23.421Z,100901.67
2018-12-12T03:25:55.940Z,100906.11
2018-12-12T03:28:27.976Z,100900.17
2018-12-12T03:30:59.967Z,100901.83
2018-12-12T03:33:32.090Z,100899.97
2018-12-12T03:36:04.621Z,100909.62
2018-12-12T03:38:36.561Z,100917.95
2018-12-12T03:41:09.056Z,100922.29
2018-12-12T03:43:41.040Z,100915.42
2018-12-12T03:46:12.957Z,100918.92
2018-12-12T03:48:45.256Z,100914.25
2018-12-12T03:51:17.578Z,100916.09
2018-12-12T03:53:49.781Z,100923.13
2018-12-12T03:56:21.816Z,100918.59
2018-12-12T03:58:53.813Z,100922.38
2018-12-12T04:01:25.807Z,100924.83
2018-12-12T04:03:58.000Z,100925.59
2018-12-12T04:06:29.933Z,100919.03
2018-12-12T04:09:01.976Z,100919.97
2018-12-12T04:11:33.947Z,100928.22
2018-12-12T04:14:06.152Z,100927.99
2018-12-12T04:16:38.286Z,100919.55
2018-12-12T04:22:04.567Z,100928.17
2018-12-12T04:24:36.979Z,100925.78
2018-12-12T04:27:08.888Z,100925.50
2018-12-12T04:29:41.137Z,100926.92
2018-12-12T04:32:13.308Z,100934.19
2018-12-12T04:34:45.485Z,100932.03
2018-12-12T04:37:17.624Z,100939.69
2018-12-12T04:39:49.767Z,100943.61
2018-12-12T04:42:20.204Z,100934.59
2018-12-12T04:44:50.257Z,100939.02
2018-12-12T04:47:24.898Z,100937.14
2018-12-12T04:49:59.039Z,100936.70
2018-12-12T04:52:31.481Z,100928.86
2018-12-12T04:55:02.089Z,100940.28
2018-12-12T04:57:34.239Z,100943.61
2018-12-12T05:00:08.499Z,100943.35
2018-12-12T05:02:43.022Z,100945.28
2018-12-12T05:05:15.976Z,100936.03
2018-12-12T05:07:50.495Z,100940.54
2018-12-12T05:10:22.839Z,100949.30
2018-12-12T05:12:55.057Z,100934.44
2018-12-12T05:15:27.336Z,100951.48
2018-12-12T05:18:00.101Z,100947.19
2018-12-12T05:20:32.065Z,100955.52
2018-12-12T05:23:05.300Z,100950.00
2018-12-12T05:25:38.374Z,100940.06
2018-12-12T05:28:10.637Z,100951.30
2018-12-12T05:30:43.872Z,100954.02
2018-12-12T05:33:16.549Z,100955.02
2018-12-12T05:38:43.202Z,100957.51
2018-12-12T05:41:16.151Z,100956.20
2018-12-12T05:43:50.866Z,100963.16
2018-12-12T05:46:22.949Z,100960.30
2018-12-12T05:48:53.327Z,100964.85
2018-12-12T05:51:25.677Z,100962.48
2018-12-12T05:53:57.336Z,100964.08
2018-12-12T05:56:29.799Z,100961.67
2018-12-12T05:59:01.994Z,100967.01
2018-12-12T06:01:34.280Z,100970.00
2018-12-12T06:04:06.388Z,100975.33
2018-12-12T06:06:36.664Z,100978.44
2018-12-12T06:09:09.720Z,100966.20
2018-12-12T06:11:44.703Z,100966.03
2018-12-12T06:14:16.614Z,100971.97
2018-12-12T06:16:48.984Z,100971.49
2018-12-12T06:19:23.862Z,100979.82
2018-12-12T06:21:57.531Z,100979.32
2018-12-12T06:24:27.662Z,100983.18
2018-12-12T06:26:59.931Z,100985.41
2018-12-12T06:29:31.773Z,100988.38
2018-12-12T06:32:02.117Z,100990.55
2018-12-12T06:34:33.953Z,100988.94
2018-12-12T06:37:04.321Z,100994.84
2018-12-12T06:39:36.383Z,100992.75
2018-12-12T06:42:08.811Z,100995.59
2018-12-12T06:44:43.131Z,100997.34
2018-12-12T06:47:15.500Z,101000.14
2018-12-12T06:57:21.273Z,101010.58
2018-12-12T06:59:53.032Z,101009.34
2018-12-12T07:02:24.977Z,101008.41
2018-12-12T07:04:57.323Z,101012.00
2018-12-12T07:07:27.677Z,101007.08
2018-12-12T07:09:59.921Z,101019.22
2018-12-12T07:12:29.901Z,101015.50
2018-12-12T07:15:01.977Z,101017.17
2018-12-12T07:17:34.281Z,101021.94
2018-12-12T07:20:06.382Z,101011.15
2018-12-12T07:22:38.452Z,101018.42
2018-12-12T07:25:10.688Z,101022.19
2018-12-12T07:27:45.850Z,101022.70
2018-12-12T07:30:17.779Z,101030.23
2018-12-12T07:32:48.025Z,101035.92
2018-12-12T07:35:20.020Z,101041.29
2018-12-12T07:37:53.180Z,101043.47
2018-12-12T07:40:25.836Z,101040.30
2018-12-12T07:42:57.518Z,101044.06
2018-12-12T07:45:29.643Z,101041.03
2018-12-12T07:48:04.044Z,101043.38
2018-12-12T07:50:36.037Z,101044.00
2018-12-12T07:53:08.365Z,101052.23
2018-12-12T07:58:12.866Z,101062.53
2018-12-12T08:00:47.331Z,101065.47
2018-12-12T08:03:19.327Z,101071.49
2018-12-12T08:05:51.682Z,101066.00
2018-12-12T08:08:23.956Z,101072.80
2018-12-12T08:10:57.330Z,101069.06
2018-12-12T08:13:32.231Z,101073.73
2018-12-12T08:16:04.285Z,101078.84
2018-12-12T08:18:36.609Z,101081.32
2018-12-12T08:21:08.648Z,101079.16
2018-12-12T08:23:40.811Z,101085.18
2018-12-12T08:26:13.154Z,101084.50
2018-12-12T08:28:45.374Z,101084.67
2018-12-12T08:31:17.560Z,101084.17
2018-12-12T08:33:50.188Z,101091.45
2018-12-12T08:36:22.008Z,101094.06
2018-12-12T08:38:54.223Z,101096.46
2018-12-12T08:41:24.488Z,101103.05
2018-12-12T08:43:59.257Z,101100.30
2018-12-12T08:46:31.980Z,101102.41
2018-12-12T08:49:04.342Z,101104.98
2018-12-12T08:51:39.725Z,101114.19
2018-12-12T08:54:11.588Z,101117.08
2018-12-12T08:59:14.925Z,101118.67
2018-12-12T09:01:47.178Z,101122.98
2018-12-12T09:04:19.560Z,101124.97
2018-12-12T09:06:51.922Z,101125.65
2018-12-12T09:09:24.427Z,101127.25
2018-12-12T09:11:56.409Z,101131.30
2018-12-12T09:14:28.315Z,101133.55
2018-12-12T09:17:00.632Z,101129.03
2018-12-12T09:19:32.874Z,101128.17
2018-12-12T09:22:05.297Z,101123.62
2018-12-12T09:24:37.273Z,101130.21
2018-12-12T09:27:09.522Z,101132.27
2018-12-12T09:29:42.183Z,101138.69
2018-12-12T09:32:14.470Z,101149.12
2018-12-12T09:34:48.856Z,101144.88
2018-12-12T09:37:20.728Z,101141.87
2018-12-12T09:39:52.742Z,101136.23
2018-12-12T09:42:24.412Z,101138.90
2018-12-12T09:44:57.216Z,101140.29
2018-12-12T09:47:29.638Z,101142.66
2018-12-12T09:50:04.027Z,101148.67
2018-12-12T09:52:35.620Z,101148.91
2018-12-12T09:55:08.175Z,101152.91
2018-12-12T09:57:38.091Z,101154.30
2018-12-12T10:00:10.671Z,101157.34
2018-12-12T10:02:42.717Z,101156.09
2018-12-12T10:05:15.428Z,101149.25
2018-12-12T10:07:47.365Z,101157.33
2018-12-12T10:10:19.786Z,101158.52
2018-12-12T10:12:52.228Z,101154.31
2018-12-12T10:15:24.787Z,101150.09
2018-12-12T10:17:56.624Z,101151.05
2018-12-12T10:20:29.032Z,101147.30
2018-12-12T10:23:01.007Z,101154.28
2018-12-12T10:25:31.225Z,101154.58
2018-12-12T10:28:03.253Z,101152.66
2018-12-12T10:30:37.605Z,101159.50
2018-12-12T10:33:09.340Z,101156.03
2018-12-12T10:35:41.464Z,101153.16
2018-12-12T10:38:13.751Z,101154.58
2018-12-12T10:40:45.671Z,101153.66
2018-12-12T10:43:17.769Z,101145.64
2018-12-12T10:45:50.038Z,101147.42
2018-12-12T10:48:22.219Z,101147.81
2018-12-12T10:50:54.608Z,101143.69
2018-12-12T10:53:28.928Z,101145.20
2018-12-12T10:56:00.608Z,101139.52
2018-12-12T10:58:32.900Z,101145.82
2018-12-12T11:01:12.402Z,101136.29
2018-12-12T11:03:45.049Z,101141.52
2018-12-12T11:06:17.442Z,101137.53
2018-12-12T11:08:49.482Z,101146.70
2018-12-12T11:11:21.460Z,101144.72
2018-12-12T11:13:53.498Z,101143.74
2018-12-12T11:16:25.993Z,101147.16
2018-12-12T11:18:58.348Z,101152.59
2018-12-12T11:21:30.706Z,101148.78
2018-12-12T11:24:03.326Z,101154.34
2018-12-12T11:26:35.256Z,101150.20
2018-12-12T11:29:07.519Z,101150.84
2018-12-12T11:31:42.076Z,101149.53
2018-12-12T11:34:14.258Z,101140.80
2018-12-12T11:36:46.100Z,101145.15
2018-12-12T11:39:18.218Z,101144.47
2018-12-12T11:41:50.806Z,101143.12
2018-12-12T11:44:22.840Z,101143.98
2018-12-12T11:46:55.068Z,101142.23
2018-12-12T11:49:27.437Z,101150.23
2018-12-12T11:51:59.675Z,101149.91
2018-12-12T11:54:32.097Z,101152.48
2018-12-12T11:57:04.320Z,101150.20
2018-12-12T12:02:35.422Z,101147.53
2018-12-12T12:05:04.743Z,101146.06
2018-12-12T12:07:38.975Z,101148.49
2018-12-12T12:10:11.945Z,101148.22
2018-12-12T12:12:44.105Z,101142.87
2018-12-12T12:15:15.952Z,101143.22
2018-12-12T12:17:49.012Z,101147.56
2018-12-12T12:20:21.693Z,101142.75
2018-12-12T12:22:53.755Z,101146.42
2018-12-12T12:25:26.027Z,101145.97
2018-12-12T12:27:58.480Z,101142.10
2018-12-12T12:30:31.052Z,101140.72
2018-12-12T12:33:03.320Z,101132.02
2018-12-12T12:35:35.787Z,101132.25
2018-12-12T12:38:08.110Z,101141.89
2018-12-12T12:40:40.033Z,101143.44
2018-12-12T12:43:14.440Z,101143.84
2018-12-12T12:45:46.552Z,101143.72
2018-12-12T12:48:19.715Z,101142.72
2018-12-12T12:50:53.704Z,101141.86
2018-12-12T12:53:25.701Z,101136.67
2018-12-12T12:55:58.055Z,101138.73
2018-12-12T12:58:30.275Z,101133.97
2018-12-12T13:01:04.574Z,101136.42
2018-12-12T13:03:39.511Z,101127.77
2018-12-12T13:06:11.101Z,101125.99
2018-12-12T13:08:43.601Z,101131.77
2018-12-12T13:11:15.595Z,101135.53
2018-12-12T13:13:50.004Z,101133.33
2018-12-12T13:19:16.676Z,101124.75
2018-12-12T13:21:49.202Z,101120.16
2018-12-12T13:24:26.156Z,101125.73
2018-12-12T13:26:58.723Z,101127.94
2018-12-12T13:29:30.711Z,101129.28
2018-12-12T13:32:02.932Z,101123.89
2018-12-12T13:34:36.774Z,101130.08
2018-12-12T13:37:08.576Z,101124.78
2018-12-12T13:39:40.859Z,101138.19
2018-12-12T13:42:13.235Z,101135.13
2018-12-12T13:44:46.249Z,101133.41
2018-12-12T13:47:18.508Z,101127.94
2018-12-12T13:49:50.811Z,101133.66
2018-12-12T13:52:23.133Z,101133.02
2018-12-12T13:54:55.595Z,101130.59
2018-12-12T13:57:27.684Z,101127.30
2018-12-12T13:59:59.898Z,101139.14
2018-12-12T14:02:34.475Z,101138.89
2018-12-12T14:05:06.395Z,101134.70
2018-12-12T14:07:38.327Z,101137.45
2018-12-12T14:10:10.447Z,101132.95
2018-12-12T14:12:43.248Z,101141.34
2018-12-12T14:15:15.752Z,101145.30
2018-12-12T14:17:48.341Z,101144.95
2018-12-12T14:20:20.538Z,101148.56
2018-12-12T14:22:53.071Z,101145.19
2018-12-12T14:25:25.150Z,101145.10
2018-12-12T14:27:55.256Z,101137.89
2018-12-12T14:30:27.458Z,101135.37
2018-12-12T14:36:17.801Z,101145.82
2018-12-12T14:38:52.759Z,101143.95
2018-12-12T14:41:27.964Z,101138.78
2018-12-12T14:44:00.471Z,101142.02
2018-12-12T14:46:32.926Z,101147.45
2018-12-12T14:49:05.335Z,101145.63
2018-12-12T14:51:37.915Z,101146.55
2018-12-12T14:54:09.572Z,101145.33
2018-12-12T14:56:39.853Z,101150.98
2018-12-12T14:59:12.112Z,101152.92
2018-12-12T15:01:44.091Z,101151.11
2018-12-12T15:04:16.201Z,101153.66
2018-12-12T15:06:48.329Z,101153.34
2018-12-12T15:09:20.843Z,101143.39
2018-12-12T15:11:52.864Z,101144.19
2018-12-12T15:14:24.972Z,101135.93
2018-12-12T15:16:57.318Z,101136.67
2018-12-12T15:19:31.874Z,101141.77
2018-12-12T15:22:05.593Z,101139.35
2018-12-12T15:24:35.946Z,101143.34
2018-12-12T15:27:08.301Z,101144.13
2018-12-12T15:29:40.150Z,101147.00
2018-12-12T15:32:13.642Z,101146.50
2018-12-12T15:34:45.693Z,101146.80
2018-12-12T15:37:17.958Z,101155.09
2018-12-12T15:39:52.681Z,101155.52
2018-12-12T15:42:24.908Z,101154.45
2018-12-12T15:44:57.902Z,101161.70
2018-12-12T15:47:30.352Z,101161.24
2018-12-12T15:52:56.417Z,101157.39
2018-12-12T15:55:28.716Z,101161.80
2018-12-12T15:58:03.087Z,101161.33
2018-12-12T16:00:35.293Z,101164.47
2018-12-12T16:03:08.013Z,101155.66
2018-12-12T16:05:40.365Z,101156.39
2018-12-12T16:08:14.910Z,101146.05
2018-12-12T16:10:46.574Z,101154.70
2018-12-12T16:13:18.805Z,101150.05
2018-12-12T16:15:50.855Z,101154.42
2018-12-12T16:18:24.784Z,101154.25
2018-12-12T16:20:57.156Z,101158.16
2018-12-12T16:23:29.446Z,101157.94
2018-12-12T16:26:01.776Z,101163.36
2018-12-12T16:28:33.965Z,101156.23
2018-12-12T16:31:06.309Z,101160.21
2018-12-12T16:33:36.492Z,101161.71
2018-12-12T16:36:09.214Z,101160.50
2018-12-12T16:38:41.964Z,101156.27
2018-12-12T16:41:15.322Z,101153.95
2018-12-12T16:43:45.728Z,101153.66
2018-12-12T16:46:17.799Z,101154.71
2018-12-12T16:48:50.309Z,101156.41
2018-12-12T16:51:22.691Z,101157.44
2018-12-12T16:53:54.462Z,101157.14
2018-12-12T16:56:27.594Z,101161.70
2018-12-12T16:59:00.105Z,101162.20
2018-12-12T17:01:35.176Z,101160.69
2018-12-12T17:04:07.104Z,101159.78
2018-12-12T17:10:02.168Z,101160.09
2018-12-12T17:12:32.195Z,101156.57
2018-12-12T17:15:06.952Z,101157.02
2018-12-12T17:17:39.256Z,101161.75
2018-12-12T17:20:11.955Z,101163.00
2018-12-12T17:22:44.241Z,101154.96
2018-12-12T17:25:17.093Z,101157.08
2018-12-12T17:27:48.963Z,101161.25
2018-12-12T17:30:19.954Z,101157.55
2018-12-12T17:32:52.993Z,101157.19
2018-12-12T17:35:25.130Z,101158.02
2018-12-12T17:37:59.518Z,101165.21
2018-12-12T17:40:31.802Z,101161.61
2018-12-12T17:43:04.187Z,101171.83
2018-12-12T17:45:36.067Z,101174.66
2018-12-12T17:48:08.020Z,101176.66
2018-12-12T17:50:40.246Z,101174.66
2018-12-12T17:53:12.476Z,101170.63
2018-12-12T17:55:46.980Z,101177.97
2018-12-12T17:58:18.820Z,101180.82
2018-12-12T18:00:51.439Z,101175.16
2018-12-12T18:03:23.532Z,101179.45
2018-12-12T18:05:55.712Z,101176.35
2018-12-12T18:08:32.289Z,101181.79
2018-12-12T18:11:04.225Z,101184.09
2018-12-12T18:13:37.503Z,101182.96
2018-12-12T18:16:09.553Z,101190.84
2018-12-12T18:18:39.915Z,101190.30
2018-12-12T18:21:11.780Z,101192.41
2018-12-12T18:26:37.779Z,101187.99
2018-12-12T18:29:09.416Z,101189.66
2018-12-12T18:31:41.626Z,101190.00
2018-12-12T18:34:14.071Z,101191.83
2018-12-12T18:36:46.650Z,101195.44
2018-12-12T18:39:18.372Z,101192.52
2018-12-12T18:41:51.025Z,101190.50
2018-12-12T18:44:23.158Z,101192.02
2018-12-12T18:46:55.934Z,101188.84
2018-12-12T18:49:28.396Z,101194.70
2018-12-12T18:52:01.821Z,101193.56
2018-12-12T18:54:34.146Z,101194.70
2018-12-12T18:57:06.258Z,101194.88
2018-12-12T18:59:38.300Z,101196.29
2018-12-12T19:02:10.897Z,101199.27
2018-12-12T19:04:42.632Z,101198.71
2018-12-12T19:07:17.320Z,101200.67
2018-12-12T19:09:51.828Z,101199.30
2018-12-12T19:12:24.015Z,101207.91
2018-12-12T19:15:02.264Z,101207.19
2018-12-12T19:17:33.932Z,101210.86
2018-12-12T19:20:07.501Z,101210.00
2018-12-12T19:22:41.543Z,101211.09
2018-12-12T19:25:13.354Z,101211.05
2018-12-12T19:27:45.812Z,101218.25
2018-12-12T19:30:17.986Z,101214.77
2018-12-12T19:32:51.119Z,101214.78
2018-12-12T19:35:21.513Z,101220.03
2018-12-12T19:37:53.648Z,101220.13
2018-12-12T19:43:19.635Z,101229.69
2018-12-12T19:45:54.505Z,101234.85
2018-12-12T19:48:27.547Z,101230.41
2018-12-12T19:50:59.401Z,101230.11
2018-12-12T19:53:31.591Z,101231.85
2018-12-12T19:56:01.762Z,101233.79
2018-12-12T19:58:33.971Z,101232.00
2018-12-12T20:01:08.674Z,101233.55
2018-12-12T20:03:42.402Z,101234.12
2018-12-12T20:06:15.243Z,101232.14
2018-12-12T20:08:49.607Z,101223.67
2018-12-12T20:13:53.770Z,101220.83
2018-12-12T20:16:25.996Z,101217.21
2018-12-12T20:18:58.248Z,101221.98
2018-12-12T20:21:30.303Z,101220.95
2018-12-12T20:24:02.666Z,101220.14
2018-12-12T20:26:35.469Z,101224.59
2018-12-12T20:29:06.412Z,101222.42
2018-12-12T20:31:37.455Z,101228.88
2018-12-12T20:34:10.167Z,101229.41
2018-12-12T20:36:43.748Z,101230.95
2018-12-12T20:39:16.990Z,101233.31
2018-12-12T20:41:50.516Z,101234.63
2018-12-12T20:44:24.583Z,101245.15
2018-12-12T20:46:56.361Z,101246.71
2018-12-12T20:49:29.081Z,101249.22
2018-12-12T20:52:02.477Z,101250.52
2018-12-12T20:54:32.970Z,101254.97
2018-12-12T20:57:05.041Z,101252.60
2018-12-12T20:59:36.856Z,101258.11
2018-12-12T21:02:10.275Z,101246.48
2018-12-12T21:04:43.257Z,101254.82
2018-12-12T21:07:16.022Z,101256.41
2018-12-12T21:09:48.005Z,101260.95
2018-12-12T21:12:20.787Z,101259.98
2018-12-12T21:14:53.217Z,101259.84
2018-12-12T21:17:25.513Z,101255.36
2018-12-12T21:19:59.678Z,101265.20
2018-12-12T21:22:32.224Z,101260.37
2018-12-12T21:25:04.851Z,101266.47
2018-12-12T21:27:39.254Z,101260.18
2018-12-12T21:30:17.175Z,101261.00
2018-12-12T21:32:48.630Z,101254.97
2018-12-12T21:35:21.501Z,101256.85
2018-12-12T21:37:54.637Z,101252.61
2018-12-12T21:40:27.204Z,101249.19
2018-12-12T21:43:00.183Z,101251.88
2018-12-12T21:45:31.955Z,101249.61
2018-12-12T21:48:04.676Z,101250.91
2018-12-12T21:50:37.887Z,101252.56
2018-12-12T21:53:10.239Z,101251.70
2018-12-12T21:55:43.702Z,101251.39
2018-12-12T21:58:16.202Z,101248.30
2018-12-12T22:00:50.799Z,101248.30
2018-12-12T22:03:23.648Z,101246.48
2018-12-12T22:05:57.357Z,101245.61
2018-12-12T22:08:30.228Z,101243.09
2018-12-12T22:11:02.576Z,101245.61
2018-12-12T22:16:07.778Z,101241.94
2018-12-12T22:18:38.388Z,101238.18
2018-12-12T22:21:10.535Z,101237.69
2018-12-12T22:23:43.358Z,101238.03
2018-12-12T22:26:16.069Z,101243.00
2018-12-12T22:28:48.715Z,101237.74
2018-12-12T22:31:23.350Z,101244.79
2018-12-12T22:33:56.069Z,101241.61
2018-12-12T22:36:29.222Z,101245.08
2018-12-12T22:39:02.985Z,101249.12
2018-12-12T22:41:35.502Z,101243.97
2018-12-12T22:44:08.485Z,101249.61
2018-12-12T22:46:41.131Z,101247.14
2018-12-12T22:49:13.377Z,101256.78
2018-12-12T22:51:46.278Z,101249.50
2018-12-12T22:54:21.213Z,101256.11
2018-12-12T22:56:53.125Z,101255.80
2018-12-12T22:59:28.380Z,101259.70
2018-12-12T23:02:01.126Z,101254.55
2018-12-12T23:04:34.280Z,101259.53
2018-12-12T23:07:07.300Z,101259.05
2018-12-12T23:09:39.157Z,101261.88
2018-12-12T23:12:11.335Z,101253.94
2018-12-12T23:14:43.297Z,101258.50
2018-12-12T23:17:17.876Z,101260.75
2018-12-12T23:19:52.724Z,101254.11
2018-12-12T23:22:25.110Z,101258.62
2018-12-12T23:24:57.455Z,101260.48
2018-12-12T23:27:29.270Z,101257.97
2018-12-12T23:30:01.359Z,101262.84
2018-12-12T23:32:32.030Z,101252.73
2018-12-12T23:35:03.914Z,101252.73
2018-12-12T23:37:36.065Z,101254.37
2018-12-12T23:40:08.261Z,101251.38
2018-12-12T23:42:40.545Z,101253.30
2018-12-12T23:45:12.724Z,101267.09
2018-12-12T23:47:43.924Z,101264.19
2018-12-12T23:50:16.072Z,101261.95
2018-12-12T23:52:50.562Z,101264.53
2018-12-12T23:55:22.267Z,101261.92
2018-12-12T23:57:54.393Z,101254.44
